sensor_id;sensor_type;location;lat;lon;timestamp;temperature;humidity
1447;DHT22;717;51.522;7.266;2023-06-10T00:00:50;25.30;90.20
1447;DHT22;717;51.522;7.266;2023-06-10T00:03:19;25.30;90.30
1447;DHT22;717;51.522;7.266;2023-06-10T00:05:48;25.30;90.30
1447;DHT22;717;51.522;7.266;2023-06-10T00:08:17;25.20;90.30
1447;DHT22;717;51.522;7.266;2023-06-10T00:10:48;25.20;90.30
1447;DHT22;717;51.522;7.266;2023-06-10T00:13:17;25.20;90.60
1447;DHT22;717;51.522;7.266;2023-06-10T00:15:45;25.10;90.50
1447;DHT22;717;51.522;7.266;2023-06-10T00:18:14;25.10;90.40
1447;DHT22;717;51.522;7.266;2023-06-10T00:20:43;25.10;90.40
1447;DHT22;717;51.522;7.266;2023-06-10T00:23:14;25.10;90.50
1447;DHT22;717;51.522;7.266;2023-06-10T00:25:43;25.10;90.50
1447;DHT22;717;51.522;7.266;2023-06-10T00:28:14;25.00;90.60
1447;DHT22;717;51.522;7.266;2023-06-10T00:30:42;25.00;90.60
1447;DHT22;717;51.522;7.266;2023-06-10T00:33:11;25.00;90.70
1447;DHT22;717;51.522;7.266;2023-06-10T00:35:39;25.00;90.70
1447;DHT22;717;51.522;7.266;2023-06-10T00:38:08;25.00;90.70
1447;DHT22;717;51.522;7.266;2023-06-10T00:40:39;24.90;90.80
1447;DHT22;717;51.522;7.266;2023-06-10T00:43:08;24.90;90.80
1447;DHT22;717;51.522;7.266;2023-06-10T00:45:39;24.90;90.90
1447;DHT22;717;51.522;7.266;2023-06-10T00:48:08;24.90;90.90
1447;DHT22;717;51.522;7.266;2023-06-10T00:50:37;24.80;90.90
1447;DHT22;717;51.522;7.266;2023-06-10T00:53:08;24.80;91.00
1447;DHT22;717;51.522;7.266;2023-06-10T00:55:36;24.80;91.00
1447;DHT22;717;51.522;7.266;2023-06-10T00:58:05;24.70;91.00
1447;DHT22;717;51.522;7.266;2023-06-10T01:00:34;24.70;91.00
1447;DHT22;717;51.522;7.266;2023-06-10T01:03:05;24.70;91.00
1447;DHT22;717;51.522;7.266;2023-06-10T01:05:35;24.70;91.00
1447;DHT22;717;51.522;7.266;2023-06-10T01:08:09;24.60;91.00
1447;DHT22;717;51.522;7.266;2023-06-10T01:10:43;24.60;91.00
1447;DHT22;717;51.522;7.266;2023-06-10T01:13:16;24.60;91.10
1447;DHT22;717;51.522;7.266;2023-06-10T01:15:49;24.60;91.10
1447;DHT22;717;51.522;7.266;2023-06-10T01:18:20;24.60;91.20
1447;DHT22;717;51.522;7.266;2023-06-10T01:20:49;24.50;91.10
1447;DHT22;717;51.522;7.266;2023-06-10T01:23:20;24.50;91.20
1447;DHT22;717;51.522;7.266;2023-06-10T01:25:53;24.50;91.30
1447;DHT22;717;51.522;7.266;2023-06-10T01:28:29;24.50;91.40
1447;DHT22;717;51.522;7.266;2023-06-10T01:31:03;24.50;91.50
1447;DHT22;717;51.522;7.266;2023-06-10T01:33:41;24.40;91.50
1447;DHT22;717;51.522;7.266;2023-06-10T01:36:12;24.40;91.60
1447;DHT22;717;51.522;7.266;2023-06-10T01:38:44;24.30;91.60
1447;DHT22;717;51.522;7.266;2023-06-10T01:41:15;24.30;91.70
1447;DHT22;717;51.522;7.266;2023-06-10T01:43:45;24.30;91.80
1447;DHT22;717;51.522;7.266;2023-06-10T01:46:13;24.30;91.80
1447;DHT22;717;51.522;7.266;2023-06-10T01:48:45;24.30;91.90
1447;DHT22;717;51.522;7.266;2023-06-10T01:51:13;24.20;91.90
1447;DHT22;717;51.522;7.266;2023-06-10T01:53:44;24.20;91.90
1447;DHT22;717;51.522;7.266;2023-06-10T01:56:13;24.20;92.10
1447;DHT22;717;51.522;7.266;2023-06-10T01:58:44;24.20;92.10
1447;DHT22;717;51.522;7.266;2023-06-10T02:01:13;24.20;92.20
1447;DHT22;717;51.522;7.266;2023-06-10T02:03:41;24.10;92.30
1447;DHT22;717;51.522;7.266;2023-06-10T02:06:10;24.10;92.30
1447;DHT22;717;51.522;7.266;2023-06-10T02:08:38;24.10;92.30
1447;DHT22;717;51.522;7.266;2023-06-10T02:11:10;24.10;92.40
1447;DHT22;717;51.522;7.266;2023-06-10T02:13:38;24.00;92.40
1447;DHT22;717;51.522;7.266;2023-06-10T02:16:07;24.00;92.50
1447;DHT22;717;51.522;7.266;2023-06-10T02:18:38;24.00;92.60
1447;DHT22;717;51.522;7.266;2023-06-10T02:21:08;24.00;92.50
1447;DHT22;717;51.522;7.266;2023-06-10T02:23:37;24.00;92.50
1447;DHT22;717;51.522;7.266;2023-06-10T02:26:05;24.00;92.60
1447;DHT22;717;51.522;7.266;2023-06-10T02:28:36;24.00;92.60
1447;DHT22;717;51.522;7.266;2023-06-10T02:31:05;24.00;92.60
1447;DHT22;717;51.522;7.266;2023-06-10T02:33:33;23.90;92.60
1447;DHT22;717;51.522;7.266;2023-06-10T02:36:05;23.90;92.60
1447;DHT22;717;51.522;7.266;2023-06-10T02:38:34;23.90;92.70
1447;DHT22;717;51.522;7.266;2023-06-10T02:41:02;23.90;92.70
1447;DHT22;717;51.522;7.266;2023-06-10T02:43:31;23.90;92.70
1447;DHT22;717;51.522;7.266;2023-06-10T02:46:02;23.90;92.60
1447;DHT22;717;51.522;7.266;2023-06-10T02:48:30;23.80;92.60
1447;DHT22;717;51.522;7.266;2023-06-10T02:50:59;23.80;92.70
1447;DHT22;717;51.522;7.266;2023-06-10T02:53:27;23.80;92.70
1447;DHT22;717;51.522;7.266;2023-06-10T02:55:56;23.80;92.70
1447;DHT22;717;51.522;7.266;2023-06-10T02:58:25;23.70;93.10
1447;DHT22;717;51.522;7.266;2023-06-10T03:00:53;23.70;92.80
1447;DHT22;717;51.522;7.266;2023-06-10T03:03:24;23.70;92.80
1447;DHT22;717;51.522;7.266;2023-06-10T03:05:53;23.70;92.80
1447;DHT22;717;51.522;7.266;2023-06-10T03:08:22;23.70;92.80
1447;DHT22;717;51.522;7.266;2023-06-10T03:10:50;23.70;92.80
1447;DHT22;717;51.522;7.266;2023-06-10T03:13:19;23.70;92.80
1447;DHT22;717;51.522;7.266;2023-06-10T03:15:47;23.60;92.80
1447;DHT22;717;51.522;7.266;2023-06-10T03:18:16;23.60;92.80
1447;DHT22;717;51.522;7.266;2023-06-10T03:20:47;23.60;92.90
1447;DHT22;717;51.522;7.266;2023-06-10T03:23:17;23.60;92.90
1447;DHT22;717;51.522;7.266;2023-06-10T03:25:46;23.60;92.90
1447;DHT22;717;51.522;7.266;2023-06-10T03:28:15;23.60;92.90
1447;DHT22;717;51.522;7.266;2023-06-10T03:30:43;23.60;93.00
1447;DHT22;717;51.522;7.266;2023-06-10T03:33:12;23.50;93.00
1447;DHT22;717;51.522;7.266;2023-06-10T03:35:40;23.50;93.00
1447;DHT22;717;51.522;7.266;2023-06-10T03:38:12;23.50;92.90
1447;DHT22;717;51.522;7.266;2023-06-10T03:40:40;23.40;92.90
1447;DHT22;717;51.522;7.266;2023-06-10T03:43:09;23.40;92.80
1447;DHT22;717;51.522;7.266;2023-06-10T03:45:37;23.40;92.90
1447;DHT22;717;51.522;7.266;2023-06-10T03:48:06;23.40;92.80
1447;DHT22;717;51.522;7.266;2023-06-10T03:50:36;23.30;92.80
1447;DHT22;717;51.522;7.266;2023-06-10T03:53:05;23.40;92.80
1447;DHT22;717;51.522;7.266;2023-06-10T03:55:36;23.30;92.80
1447;DHT22;717;51.522;7.266;2023-06-10T03:58:04;23.30;92.80
1447;DHT22;717;51.522;7.266;2023-06-10T04:00:33;23.30;92.70
1447;DHT22;717;51.522;7.266;2023-06-10T04:03:06;23.30;92.70
1447;DHT22;717;51.522;7.266;2023-06-10T04:05:40;23.30;92.70
1447;DHT22;717;51.522;7.266;2023-06-10T04:08:09;23.30;92.70
1447;DHT22;717;51.522;7.266;2023-06-10T04:10:40;23.30;92.70
1447;DHT22;717;51.522;7.266;2023-06-10T04:13:09;23.30;92.70
1447;DHT22;717;51.522;7.266;2023-06-10T04:15:37;23.30;92.70
1447;DHT22;717;51.522;7.266;2023-06-10T04:18:06;23.20;92.60
1447;DHT22;717;51.522;7.266;2023-06-10T04:20:34;23.20;92.60
1447;DHT22;717;51.522;7.266;2023-06-10T04:23:03;23.20;92.60
1447;DHT22;717;51.522;7.266;2023-06-10T04:25:32;23.20;92.50
1447;DHT22;717;51.522;7.266;2023-06-10T04:28:03;23.20;92.50
1447;DHT22;717;51.522;7.266;2023-06-10T04:30:32;23.10;92.50
1447;DHT22;717;51.522;7.266;2023-06-10T04:33:00;23.10;92.40
1447;DHT22;717;51.522;7.266;2023-06-10T04:35:29;23.10;92.40
1447;DHT22;717;51.522;7.266;2023-06-10T04:37:58;23.10;92.50
1447;DHT22;717;51.522;7.266;2023-06-10T04:40:28;23.10;92.40
1447;DHT22;717;51.522;7.266;2023-06-10T04:42:56;23.10;92.40
1447;DHT22;717;51.522;7.266;2023-06-10T04:45:27;23.10;92.30
1447;DHT22;717;51.522;7.266;2023-06-10T04:47:56;23.10;92.30
1447;DHT22;717;51.522;7.266;2023-06-10T04:50:26;23.10;92.30
1447;DHT22;717;51.522;7.266;2023-06-10T04:52:55;23.10;92.40
1447;DHT22;717;51.522;7.266;2023-06-10T04:55:23;23.10;92.40
1447;DHT22;717;51.522;7.266;2023-06-10T04:57:52;23.10;92.40
1447;DHT22;717;51.522;7.266;2023-06-10T05:00:20;23.10;92.40
1447;DHT22;717;51.522;7.266;2023-06-10T05:02:51;23.10;92.60
1447;DHT22;717;51.522;7.266;2023-06-10T05:05:21;23.10;92.50
1447;DHT22;717;51.522;7.266;2023-06-10T05:07:50;23.10;92.50
1447;DHT22;717;51.522;7.266;2023-06-10T05:10:18;23.10;92.50
1447;DHT22;717;51.522;7.266;2023-06-10T05:12:47;23.00;92.50
1447;DHT22;717;51.522;7.266;2023-06-10T05:15:15;23.10;92.60
1447;DHT22;717;51.522;7.266;2023-06-10T05:17:44;23.10;92.60
1447;DHT22;717;51.522;7.266;2023-06-10T05:20:15;23.10;92.60
1447;DHT22;717;51.522;7.266;2023-06-10T05:22:44;23.10;92.60
1447;DHT22;717;51.522;7.266;2023-06-10T05:25:12;23.10;92.60
1447;DHT22;717;51.522;7.266;2023-06-10T05:27:41;23.10;92.60
1447;DHT22;717;51.522;7.266;2023-06-10T05:30:10;23.10;92.40
1447;DHT22;717;51.522;7.266;2023-06-10T05:32:39;23.00;92.40
1447;DHT22;717;51.522;7.266;2023-06-10T05:35:08;23.00;92.50
1447;DHT22;717;51.522;7.266;2023-06-10T05:37:39;23.00;92.50
1447;DHT22;717;51.522;7.266;2023-06-10T05:40:09;23.00;92.40
1447;DHT22;717;51.522;7.266;2023-06-10T05:42:37;23.00;92.40
1447;DHT22;717;51.522;7.266;2023-06-10T05:45:07;23.00;92.40
1447;DHT22;717;51.522;7.266;2023-06-10T05:47:36;23.10;92.40
1447;DHT22;717;51.522;7.266;2023-06-10T05:50:05;23.00;92.40
1447;DHT22;717;51.522;7.266;2023-06-10T05:52:34;23.00;92.40
1447;DHT22;717;51.522;7.266;2023-06-10T05:55:09;23.10;92.40
1447;DHT22;717;51.522;7.266;2023-06-10T05:57:41;23.10;92.50
1447;DHT22;717;51.522;7.266;2023-06-10T06:00:11;23.10;92.60
1447;DHT22;717;51.522;7.266;2023-06-10T06:02:39;23.10;92.60
1447;DHT22;717;51.522;7.266;2023-06-10T06:05:08;23.10;92.70
1447;DHT22;717;51.522;7.266;2023-06-10T06:07:37;23.10;92.70
1447;DHT22;717;51.522;7.266;2023-06-10T06:10:08;23.10;92.70
1447;DHT22;717;51.522;7.266;2023-06-10T06:12:37;23.10;92.70
1447;DHT22;717;51.522;7.266;2023-06-10T06:15:07;23.10;92.60
1447;DHT22;717;51.522;7.266;2023-06-10T06:17:36;23.20;92.70
1447;DHT22;717;51.522;7.266;2023-06-10T06:20:06;23.20;92.70
1447;DHT22;717;51.522;7.266;2023-06-10T06:22:35;23.20;92.80
1447;DHT22;717;51.522;7.266;2023-06-10T06:25:04;23.20;92.80
1447;DHT22;717;51.522;7.266;2023-06-10T06:27:35;23.20;92.80
1447;DHT22;717;51.522;7.266;2023-06-10T06:30:05;23.30;92.80
1447;DHT22;717;51.522;7.266;2023-06-10T06:32:34;23.30;92.70
1447;DHT22;717;51.522;7.266;2023-06-10T06:35:03;23.30;92.70
1447;DHT22;717;51.522;7.266;2023-06-10T06:37:33;23.30;92.70
1447;DHT22;717;51.522;7.266;2023-06-10T06:40:02;23.30;92.70
1447;DHT22;717;51.522;7.266;2023-06-10T06:42:31;23.40;92.70
1447;DHT22;717;51.522;7.266;2023-06-10T06:45:03;23.40;92.70
1447;DHT22;717;51.522;7.266;2023-06-10T06:47:31;23.40;92.70
1447;DHT22;717;51.522;7.266;2023-06-10T06:50:00;23.40;92.70
1447;DHT22;717;51.522;7.266;2023-06-10T06:52:28;23.40;92.70
1447;DHT22;717;51.522;7.266;2023-06-10T06:54:57;23.50;92.70
1447;DHT22;717;51.522;7.266;2023-06-10T06:57:25;23.50;92.70
1447;DHT22;717;51.522;7.266;2023-06-10T06:59:54;23.50;92.80
1447;DHT22;717;51.522;7.266;2023-06-10T07:02:25;23.50;92.90
1447;DHT22;717;51.522;7.266;2023-06-10T07:04:53;23.50;92.90
1447;DHT22;717;51.522;7.266;2023-06-10T07:07:22;23.60;92.90
1447;DHT22;717;51.522;7.266;2023-06-10T07:09:54;23.60;92.90
1447;DHT22;717;51.522;7.266;2023-06-10T07:12:22;23.60;92.90
1447;DHT22;717;51.522;7.266;2023-06-10T07:14:51;23.70;92.90
1447;DHT22;717;51.522;7.266;2023-06-10T07:17:20;23.70;92.90
1447;DHT22;717;51.522;7.266;2023-06-10T07:19:51;23.70;92.90
1447;DHT22;717;51.522;7.266;2023-06-10T07:22:22;23.70;93.00
1447;DHT22;717;51.522;7.266;2023-06-10T07:24:51;23.70;93.10
1447;DHT22;717;51.522;7.266;2023-06-10T07:27:21;23.80;93.20
1447;DHT22;717;51.522;7.266;2023-06-10T07:29:50;23.80;93.10
1447;DHT22;717;51.522;7.266;2023-06-10T07:32:19;23.80;93.10
1447;DHT22;717;51.522;7.266;2023-06-10T07:34:51;23.90;93.20
1447;DHT22;717;51.522;7.266;2023-06-10T07:37:20;23.90;93.30
1447;DHT22;717;51.522;7.266;2023-06-10T07:39:49;23.90;93.40
1447;DHT22;717;51.522;7.266;2023-06-10T07:42:17;24.00;93.40
1447;DHT22;717;51.522;7.266;2023-06-10T07:44:46;24.00;93.30
1447;DHT22;717;51.522;7.266;2023-06-10T07:47:15;24.10;93.30
1447;DHT22;717;51.522;7.266;2023-06-10T07:49:43;24.10;93.20
1447;DHT22;717;51.522;7.266;2023-06-10T07:52:15;24.10;93.20
1447;DHT22;717;51.522;7.266;2023-06-10T07:54:43;24.20;93.50
1447;DHT22;717;51.522;7.266;2023-06-10T07:57:12;24.20;93.70
1447;DHT22;717;51.522;7.266;2023-06-10T07:59:40;24.30;93.80
1447;DHT22;717;51.522;7.266;2023-06-10T08:02:09;24.30;93.80
1447;DHT22;717;51.522;7.266;2023-06-10T08:04:38;24.30;93.70
1447;DHT22;717;51.522;7.266;2023-06-10T08:07:06;24.40;93.80
1447;DHT22;717;51.522;7.266;2023-06-10T08:09:37;24.40;93.80
1447;DHT22;717;51.522;7.266;2023-06-10T08:12:07;24.50;93.90
1447;DHT22;717;51.522;7.266;2023-06-10T08:14:35;24.50;93.60
1447;DHT22;717;51.522;7.266;2023-06-10T08:17:05;24.50;93.60
1447;DHT22;717;51.522;7.266;2023-06-10T08:19:33;24.60;93.70
1447;DHT22;717;51.522;7.266;2023-06-10T08:22:02;24.60;93.80
1447;DHT22;717;51.522;7.266;2023-06-10T08:24:30;24.70;93.70
1447;DHT22;717;51.522;7.266;2023-06-10T08:27:02;24.70;93.60
1447;DHT22;717;51.522;7.266;2023-06-10T08:29:31;24.70;93.70
1447;DHT22;717;51.522;7.266;2023-06-10T08:32:00;24.80;93.70
1447;DHT22;717;51.522;7.266;2023-06-10T08:34:28;24.80;93.40
1447;DHT22;717;51.522;7.266;2023-06-10T08:36:57;24.90;93.60
1447;DHT22;717;51.522;7.266;2023-06-10T08:39:25;24.90;93.50
1447;DHT22;717;51.522;7.266;2023-06-10T08:42:21;25.00;93.60
1447;DHT22;717;51.522;7.266;2023-06-10T08:44:53;25.00;93.50
1447;DHT22;717;51.522;7.266;2023-06-10T08:47:23;25.10;93.50
1447;DHT22;717;51.522;7.266;2023-06-10T08:49:55;25.10;93.70
1447;DHT22;717;51.522;7.266;2023-06-10T08:52:29;25.20;93.70
1447;DHT22;717;51.522;7.266;2023-06-10T08:55:08;25.20;93.60
1447;DHT22;717;51.522;7.266;2023-06-10T08:57:41;25.20;93.40
1447;DHT22;717;51.522;7.266;2023-06-10T09:00:11;25.30;93.20
1447;DHT22;717;51.522;7.266;2023-06-10T09:02:40;25.40;93.40
1447;DHT22;717;51.522;7.266;2023-06-10T09:05:09;25.40;93.60
1447;DHT22;717;51.522;7.266;2023-06-10T09:07:38;25.40;93.50
1447;DHT22;717;51.522;7.266;2023-06-10T09:10:08;25.50;93.40
1447;DHT22;717;51.522;7.266;2023-06-10T09:12:39;25.50;93.50
1447;DHT22;717;51.522;7.266;2023-06-10T09:15:09;25.60;93.50
1447;DHT22;717;51.522;7.266;2023-06-10T09:17:38;25.70;93.50
1447;DHT22;717;51.522;7.266;2023-06-10T09:20:07;25.70;93.40
1447;DHT22;717;51.522;7.266;2023-06-10T09:22:36;25.80;93.30
1447;DHT22;717;51.522;7.266;2023-06-10T09:25:06;25.80;93.30
1447;DHT22;717;51.522;7.266;2023-06-10T09:27:47;25.90;93.40
1447;DHT22;717;51.522;7.266;2023-06-10T09:30:26;26.00;93.40
1447;DHT22;717;51.522;7.266;2023-06-10T09:32:56;26.10;93.50
1447;DHT22;717;51.522;7.266;2023-06-10T09:35:26;26.10;93.60
1447;DHT22;717;51.522;7.266;2023-06-10T09:37:56;26.10;93.40
1447;DHT22;717;51.522;7.266;2023-06-10T09:40:26;26.20;93.30
1447;DHT22;717;51.522;7.266;2023-06-10T09:42:59;26.20;93.50
1447;DHT22;717;51.522;7.266;2023-06-10T09:45:30;26.30;93.40
1447;DHT22;717;51.522;7.266;2023-06-10T09:48:00;26.30;93.50
1447;DHT22;717;51.522;7.266;2023-06-10T09:50:33;26.40;93.30
1447;DHT22;717;51.522;7.266;2023-06-10T09:53:01;26.50;93.40
1447;DHT22;717;51.522;7.266;2023-06-10T09:55:33;26.50;92.90
1447;DHT22;717;51.522;7.266;2023-06-10T09:58:04;26.60;92.90
1447;DHT22;717;51.522;7.266;2023-06-10T10:00:33;26.60;92.80
1447;DHT22;717;51.522;7.266;2023-06-10T10:03:02;26.70;92.90
1447;DHT22;717;51.522;7.266;2023-06-10T10:05:32;26.80;92.80
1447;DHT22;717;51.522;7.266;2023-06-10T10:08:00;26.90;92.60
1447;DHT22;717;51.522;7.266;2023-06-10T10:10:29;26.90;92.40
1447;DHT22;717;51.522;7.266;2023-06-10T10:12:58;27.00;92.60
1447;DHT22;717;51.522;7.266;2023-06-10T10:15:31;27.10;92.70
1447;DHT22;717;51.522;7.266;2023-06-10T10:18:06;27.10;92.20
1447;DHT22;717;51.522;7.266;2023-06-10T10:20:40;27.20;92.20
1447;DHT22;717;51.522;7.266;2023-06-10T10:23:11;27.20;92.20
1447;DHT22;717;51.522;7.266;2023-06-10T10:25:42;27.30;92.30
1447;DHT22;717;51.522;7.266;2023-06-10T10:28:12;27.40;92.00
1447;DHT22;717;51.522;7.266;2023-06-10T10:30:48;27.40;91.80
1447;DHT22;717;51.522;7.266;2023-06-10T10:33:19;27.50;91.90
1447;DHT22;717;51.522;7.266;2023-06-10T10:35:52;27.50;91.50
1447;DHT22;717;51.522;7.266;2023-06-10T10:38:21;27.60;91.30
1447;DHT22;717;51.522;7.266;2023-06-10T10:40:50;27.70;91.30
1447;DHT22;717;51.522;7.266;2023-06-10T10:43:21;27.80;91.50
1447;DHT22;717;51.522;7.266;2023-06-10T10:46:01;27.80;91.30
1447;DHT22;717;51.522;7.266;2023-06-10T10:48:35;27.90;91.00
1447;DHT22;717;51.522;7.266;2023-06-10T10:51:06;28.00;91.50
1447;DHT22;717;51.522;7.266;2023-06-10T10:53:36;28.20;91.10
1447;DHT22;717;51.522;7.266;2023-06-10T10:56:06;28.30;91.20
1447;DHT22;717;51.522;7.266;2023-06-10T10:58:35;28.40;91.30
1447;DHT22;717;51.522;7.266;2023-06-10T11:01:16;28.40;91.40
1447;DHT22;717;51.522;7.266;2023-06-10T11:03:45;28.50;91.10
1447;DHT22;717;51.522;7.266;2023-06-10T11:06:15;28.50;90.80
1447;DHT22;717;51.522;7.266;2023-06-10T11:08:47;28.60;90.60
1447;DHT22;717;51.522;7.266;2023-06-10T11:11:18;28.60;90.60
1447;DHT22;717;51.522;7.266;2023-06-10T11:14:06;28.70;90.40
1447;DHT22;717;51.522;7.266;2023-06-10T11:16:42;28.70;90.10
1447;DHT22;717;51.522;7.266;2023-06-10T11:19:31;28.80;90.60
1447;DHT22;717;51.522;7.266;2023-06-10T11:22:02;28.80;90.40
1447;DHT22;717;51.522;7.266;2023-06-10T11:24:31;28.90;90.00
1447;DHT22;717;51.522;7.266;2023-06-10T11:27:15;29.00;90.10
1447;DHT22;717;51.522;7.266;2023-06-10T11:29:58;29.00;89.20
1447;DHT22;717;51.522;7.266;2023-06-10T11:32:31;29.10;88.30
1447;DHT22;717;51.522;7.266;2023-06-10T11:34:59;29.10;88.70
1447;DHT22;717;51.522;7.266;2023-06-10T11:37:28;29.20;88.40
1447;DHT22;717;51.522;7.266;2023-06-10T11:39:57;29.20;87.90
1447;DHT22;717;51.522;7.266;2023-06-10T11:42:26;29.20;88.40
1447;DHT22;717;51.522;7.266;2023-06-10T11:44:55;29.30;88.40
1447;DHT22;717;51.522;7.266;2023-06-10T11:47:23;29.40;88.20
1447;DHT22;717;51.522;7.266;2023-06-10T11:49:58;29.40;87.50
1447;DHT22;717;51.522;7.266;2023-06-10T11:52:27;29.50;87.60
1447;DHT22;717;51.522;7.266;2023-06-10T11:54:57;29.60;87.00
1447;DHT22;717;51.522;7.266;2023-06-10T11:57:26;29.60;86.80
1447;DHT22;717;51.522;7.266;2023-06-10T11:59:54;29.70;86.60
1447;DHT22;717;51.522;7.266;2023-06-10T12:02:23;29.70;86.60
1447;DHT22;717;51.522;7.266;2023-06-10T12:04:51;29.80;85.70
1447;DHT22;717;51.522;7.266;2023-06-10T12:07:22;29.80;85.40
1447;DHT22;717;51.522;7.266;2023-06-10T12:09:59;29.90;85.40
1447;DHT22;717;51.522;7.266;2023-06-10T12:12:27;29.90;85.20
1447;DHT22;717;51.522;7.266;2023-06-10T12:14:57;30.00;85.00
1447;DHT22;717;51.522;7.266;2023-06-10T12:17:36;30.00;84.60
1447;DHT22;717;51.522;7.266;2023-06-10T12:20:06;30.10;84.10
1447;DHT22;717;51.522;7.266;2023-06-10T12:22:43;30.10;83.80
1447;DHT22;717;51.522;7.266;2023-06-10T12:25:12;30.10;83.30
1447;DHT22;717;51.522;7.266;2023-06-10T12:27:49;30.20;83.10
1447;DHT22;717;51.522;7.266;2023-06-10T12:30:19;30.20;83.50
1447;DHT22;717;51.522;7.266;2023-06-10T12:32:48;30.20;83.10
1447;DHT22;717;51.522;7.266;2023-06-10T12:35:19;30.20;83.30
1447;DHT22;717;51.522;7.266;2023-06-10T12:37:59;30.30;82.90
1447;DHT22;717;51.522;7.266;2023-06-10T12:40:29;30.30;83.10
1447;DHT22;717;51.522;7.266;2023-06-10T12:42:59;30.40;83.00
1447;DHT22;717;51.522;7.266;2023-06-10T12:45:28;30.40;83.40
1447;DHT22;717;51.522;7.266;2023-06-10T12:48:07;30.50;83.70
1447;DHT22;717;51.522;7.266;2023-06-10T12:50:37;30.60;84.00
1447;DHT22;717;51.522;7.266;2023-06-10T12:53:09;30.60;84.10
1447;DHT22;717;51.522;7.266;2023-06-10T12:55:38;30.60;83.20
1447;DHT22;717;51.522;7.266;2023-06-10T12:58:07;30.70;82.60
1447;DHT22;717;51.522;7.266;2023-06-10T13:00:35;30.70;82.00
1447;DHT22;717;51.522;7.266;2023-06-10T13:03:05;30.70;80.90
1447;DHT22;717;51.522;7.266;2023-06-10T13:05:36;30.80;80.40
1447;DHT22;717;51.522;7.266;2023-06-10T13:08:08;30.80;79.90
1447;DHT22;717;51.522;7.266;2023-06-10T13:10:38;30.90;79.80
1447;DHT22;717;51.522;7.266;2023-06-10T13:13:06;31.00;79.40
1447;DHT22;717;51.522;7.266;2023-06-10T13:15:35;31.00;79.60
1447;DHT22;717;51.522;7.266;2023-06-10T13:18:04;31.00;79.70
1447;DHT22;717;51.522;7.266;2023-06-10T13:20:33;31.00;78.60
1447;DHT22;717;51.522;7.266;2023-06-10T13:23:01;31.00;77.90
1447;DHT22;717;51.522;7.266;2023-06-10T13:25:32;31.10;78.50
1447;DHT22;717;51.522;7.266;2023-06-10T13:28:01;31.10;78.30
1447;DHT22;717;51.522;7.266;2023-06-10T13:30:29;31.10;78.10
1447;DHT22;717;51.522;7.266;2023-06-10T13:32:58;31.20;78.20
1447;DHT22;717;51.522;7.266;2023-06-10T13:35:26;31.20;78.10
1447;DHT22;717;51.522;7.266;2023-06-10T13:37:55;31.30;77.70
1447;DHT22;717;51.522;7.266;2023-06-10T13:40:23;31.30;77.50
1447;DHT22;717;51.522;7.266;2023-06-10T13:42:54;31.40;77.30
1447;DHT22;717;51.522;7.266;2023-06-10T13:45:23;31.30;77.10
1447;DHT22;717;51.522;7.266;2023-06-10T13:47:51;31.40;77.90
1447;DHT22;717;51.522;7.266;2023-06-10T13:50:20;31.40;78.40
1447;DHT22;717;51.522;7.266;2023-06-10T13:52:48;31.50;78.20
1447;DHT22;717;51.522;7.266;2023-06-10T13:55:17;31.40;79.20
1447;DHT22;717;51.522;7.266;2023-06-10T13:57:50;31.50;77.90
1447;DHT22;717;51.522;7.266;2023-06-10T14:00:21;31.50;78.40
1447;DHT22;717;51.522;7.266;2023-06-10T14:02:50;31.50;77.60
1447;DHT22;717;51.522;7.266;2023-06-10T14:05:19;31.50;77.80
1447;DHT22;717;51.522;7.266;2023-06-10T14:07:47;31.60;77.80
1447;DHT22;717;51.522;7.266;2023-06-10T14:10:16;31.60;77.90
1447;DHT22;717;51.522;7.266;2023-06-10T14:12:44;31.60;77.80
1447;DHT22;717;51.522;7.266;2023-06-10T14:15:13;31.70;77.60
1447;DHT22;717;51.522;7.266;2023-06-10T14:17:44;31.70;77.60
1447;DHT22;717;51.522;7.266;2023-06-10T14:20:12;31.80;77.80
1447;DHT22;717;51.522;7.266;2023-06-10T14:22:41;31.70;77.90
1447;DHT22;717;51.522;7.266;2023-06-10T14:25:09;31.80;77.60
1447;DHT22;717;51.522;7.266;2023-06-10T14:27:39;31.80;77.20
1447;DHT22;717;51.522;7.266;2023-06-10T14:30:08;31.80;77.40
1447;DHT22;717;51.522;7.266;2023-06-10T14:32:36;31.80;77.60
1447;DHT22;717;51.522;7.266;2023-06-10T14:35:08;31.80;77.10
1447;DHT22;717;51.522;7.266;2023-06-10T14:37:36;31.80;78.00
1447;DHT22;717;51.522;7.266;2023-06-10T14:40:06;31.80;78.00
1447;DHT22;717;51.522;7.266;2023-06-10T14:42:35;31.80;77.50
1447;DHT22;717;51.522;7.266;2023-06-10T14:45:05;31.90;78.40
1447;DHT22;717;51.522;7.266;2023-06-10T14:47:33;31.90;77.70
1447;DHT22;717;51.522;7.266;2023-06-10T14:50:02;31.90;77.60
1447;DHT22;717;51.522;7.266;2023-06-10T14:52:33;31.90;77.30
1447;DHT22;717;51.522;7.266;2023-06-10T14:55:02;32.00;77.00
1447;DHT22;717;51.522;7.266;2023-06-10T14:57:30;31.90;76.70
1447;DHT22;717;51.522;7.266;2023-06-10T14:59:59;32.00;76.60
1447;DHT22;717;51.522;7.266;2023-06-10T15:02:27;32.00;76.80
1447;DHT22;717;51.522;7.266;2023-06-10T15:04:56;32.00;76.30
1447;DHT22;717;51.522;7.266;2023-06-10T15:07:24;32.00;76.10
1447;DHT22;717;51.522;7.266;2023-06-10T15:09:55;32.00;76.30
1447;DHT22;717;51.522;7.266;2023-06-10T15:12:24;32.00;76.40
1447;DHT22;717;51.522;7.266;2023-06-10T15:14:53;32.00;76.30
1447;DHT22;717;51.522;7.266;2023-06-10T15:17:21;32.00;75.90
1447;DHT22;717;51.522;7.266;2023-06-10T15:19:50;32.10;76.10
1447;DHT22;717;51.522;7.266;2023-06-10T15:22:18;32.10;76.10
1447;DHT22;717;51.522;7.266;2023-06-10T15:24:47;32.10;76.30
1447;DHT22;717;51.522;7.266;2023-06-10T15:27:18;32.10;75.90
1447;DHT22;717;51.522;7.266;2023-06-10T15:29:47;32.20;76.00
1447;DHT22;717;51.522;7.266;2023-06-10T15:32:15;32.20;75.80
1447;DHT22;717;51.522;7.266;2023-06-10T15:34:43;32.20;75.60
1447;DHT22;717;51.522;7.266;2023-06-10T15:37:13;32.20;75.40
1447;DHT22;717;51.522;7.266;2023-06-10T15:39:41;32.20;75.60
1447;DHT22;717;51.522;7.266;2023-06-10T15:42:10;32.20;75.60
1447;DHT22;717;51.522;7.266;2023-06-10T15:44:41;32.20;75.70
1447;DHT22;717;51.522;7.266;2023-06-10T15:47:09;32.20;75.20
1447;DHT22;717;51.522;7.266;2023-06-10T15:49:38;32.20;75.20
1447;DHT22;717;51.522;7.266;2023-06-10T15:52:06;32.20;74.50
1447;DHT22;717;51.522;7.266;2023-06-10T15:54:35;32.20;74.20
1447;DHT22;717;51.522;7.266;2023-06-10T15:57:04;32.20;74.20
1447;DHT22;717;51.522;7.266;2023-06-10T15:59:33;32.20;74.90
1447;DHT22;717;51.522;7.266;2023-06-10T16:02:05;32.20;75.70
1447;DHT22;717;51.522;7.266;2023-06-10T16:04:34;32.20;75.10
1447;DHT22;717;51.522;7.266;2023-06-10T16:07:03;32.20;75.00
1447;DHT22;717;51.522;7.266;2023-06-10T16:09:31;32.20;75.10
1447;DHT22;717;51.522;7.266;2023-06-10T16:12:00;32.20;74.90
1447;DHT22;717;51.522;7.266;2023-06-10T16:14:28;32.20;74.50
1447;DHT22;717;51.522;7.266;2023-06-10T16:16:57;32.20;74.50
1447;DHT22;717;51.522;7.266;2023-06-10T16:19:28;32.20;74.20
1447;DHT22;717;51.522;7.266;2023-06-10T16:21:57;32.20;74.20
1447;DHT22;717;51.522;7.266;2023-06-10T16:24:25;32.20;74.10
1447;DHT22;717;51.522;7.266;2023-06-10T16:26:54;32.20;74.00
1447;DHT22;717;51.522;7.266;2023-06-10T16:29:22;32.20;74.30
1447;DHT22;717;51.522;7.266;2023-06-10T16:31:51;32.20;74.90
1447;DHT22;717;51.522;7.266;2023-06-10T16:34:19;32.20;74.90